< < Back
Terminal Aerodrome Forecast


Current Version              Previous Versions:   1  2  3  4  5  6  7  8  9  

Terminal Aerodrome Forecast

071
FTUS42 KTAE 241120
TAFVLD
TAF
KVLD 241120Z 2412/2512 25005KT P6SM FEW050=

Latest METAR

292
SAUS70 KWBC 242300 RRE
MTRVLD
METAR KVLD 242253Z 00000KT 10SM CLR 33/21 A3003 RMK AO2 SLP173
T03280211


USA.gov is the U.S. government's official web portal to all federal, state and local government web resources and services.